createdAt,value
2022-11-17T00:00:46.492Z,94131.44
2022-11-17T00:06:00.987Z,94127.47
2022-11-17T00:11:06.292Z,94136.50
2022-11-17T00:16:10.267Z,94129.59
2022-11-17T00:21:27.173Z,94130.41
2022-11-17T00:26:31.108Z,94135.69
2022-11-17T00:31:52.864Z,94125.88
2022-11-17T00:36:56.971Z,94124.75
2022-11-17T00:42:04.003Z,94125.78
2022-11-17T00:47:09.257Z,94123.56
2022-11-17T00:52:12.826Z,94124.91
2022-11-17T00:57:19.843Z,94117.91
2022-11-17T01:02:24.872Z,94120.88
2022-11-17T01:07:30.149Z,94122.63
2022-11-17T01:12:36.005Z,94114.06
2022-11-17T01:17:41.457Z,94116.78
2022-11-17T01:22:45.656Z,94113.75
2022-11-17T01:27:50.810Z,94106.94
2022-11-17T01:33:01.758Z,94105.66
2022-11-17T01:38:05.605Z,94110.69
2022-11-17T01:43:10.164Z,94112.97
2022-11-17T01:48:15.215Z,94110.84
2022-11-17T01:53:20.971Z,94105.22
2022-11-17T01:58:26.503Z,94103.31
2022-11-17T02:03:29.653Z,94095.28
2022-11-17T02:08:34.586Z,94079.81
2022-11-17T02:13:37.988Z,94077.66
2022-11-17T02:18:43.152Z,94081.88
2022-11-17T02:23:47.143Z,94053.09
2022-11-17T02:28:52.032Z,94051.47
2022-11-17T02:33:55.577Z,94043.47
2022-11-17T02:39:00.758Z,94038.63
2022-11-17T02:44:07.053Z,94031.69
2022-11-17T02:49:13.454Z,94026.47
2022-11-17T02:54:21.205Z,94020.44
2022-11-17T02:59:25.321Z,94008.00
2022-11-17T03:04:28.559Z,94004.53
2022-11-17T03:09:33.444Z,93988.28
2022-11-17T03:14:37.440Z,93991.50
2022-11-17T03:19:47.337Z,93980.34
2022-11-17T03:24:54.693Z,93966.84
2022-11-17T03:29:59.620Z,93973.69
2022-11-17T03:35:06.301Z,93968.97
2022-11-17T03:40:09.483Z,93975.91
2022-11-17T03:45:13.042Z,93972.47
2022-11-17T03:50:17.735Z,93971.13
2022-11-17T03:55:21.598Z,93960.88
2022-11-17T04:00:25.282Z,93942.19
2022-11-17T04:05:30.384Z,93934.22
2022-11-17T04:10:56.066Z,93920.28
2022-11-17T04:15:59.720Z,93924.41
2022-11-17T04:21:05.371Z,93918.50
2022-11-17T04:26:26.414Z,93923.28
2022-11-17T04:31:30.847Z,93911.63
2022-11-17T04:36:36.008Z,93919.31
2022-11-17T04:41:57.386Z,93920.81
2022-11-17T04:47:03.042Z,93902.78
2022-11-17T04:52:06.316Z,93887.94
2022-11-17T04:57:12.430Z,93896.53
2022-11-17T05:02:18.452Z,93882.00
2022-11-17T05:07:24.737Z,93870.25
2022-11-17T05:12:51.207Z,93873.63
2022-11-17T05:17:55.298Z,93890.84
2022-11-17T05:23:19.366Z,93915.50
2022-11-17T05:28:27.329Z,93924.34
2022-11-17T05:33:37.458Z,93920.47
2022-11-17T05:38:42.673Z,93939.88
2022-11-17T05:43:46.163Z,93975.03
2022-11-17T05:48:50.891Z,93979.59
2022-11-17T05:53:55.937Z,93983.59
2022-11-17T05:59:05.418Z,93972.44
2022-11-17T06:04:11.209Z,93989.81
2022-11-17T06:09:15.891Z,94002.00
2022-11-17T06:14:20.177Z,94001.97
2022-11-17T06:19:25.036Z,94004.31
2022-11-17T06:24:33.644Z,94002.41
2022-11-17T06:29:44.309Z,93993.41
2022-11-17T06:34:55.690Z,93967.22
2022-11-17T06:40:00.638Z,93949.06
2022-11-17T06:45:05.122Z,93929.69
2022-11-17T06:50:11.806Z,93935.81
2022-11-17T06:55:15.926Z,93953.75
2022-11-17T07:00:21.415Z,93974.22
2022-11-17T07:05:31.546Z,93985.31
2022-11-17T07:10:35.472Z,93983.06
2022-11-17T07:15:41.456Z,93974.22
2022-11-17T07:20:47.191Z,93992.09
2022-11-17T07:25:53.117Z,94022.06
2022-11-17T07:31:00.077Z,93997.69
2022-11-17T07:36:08.906Z,94005.69
2022-11-17T07:41:16.173Z,94006.56
2022-11-17T07:46:21.381Z,94022.59
2022-11-17T07:51:32.979Z,94016.59
2022-11-17T07:56:44.529Z,94012.94
2022-11-17T08:01:50.735Z,94021.16
2022-11-17T08:06:54.764Z,94027.13
2022-11-17T08:11:59.366Z,94024.94
2022-11-17T08:17:09.079Z,94048.69
2022-11-17T08:22:13.600Z,94056.22
2022-11-17T08:27:18.462Z,94056.50
2022-11-17T08:32:23.795Z,94070.78
2022-11-17T08:37:28.638Z,94113.94
2022-11-17T08:42:35.886Z,94047.97
2022-11-17T08:47:43.355Z,94036.94
2022-11-17T08:52:55.923Z,94030.78
2022-11-17T08:58:01.888Z,94015.94
2022-11-17T09:03:08.045Z,94010.16
2022-11-17T09:08:43.948Z,93993.44
2022-11-17T09:13:40.015Z,93981.19
2022-11-17T09:18:45.568Z,93978.09
2022-11-17T09:23:58.166Z,93976.50
2022-11-17T09:29:05.891Z,93989.00
2022-11-17T09:34:10.185Z,93979.25
2022-11-17T09:39:13.813Z,93986.53
2022-11-17T09:44:19.496Z,93992.22
2022-11-17T09:49:31.226Z,93979.81
2022-11-17T09:54:36.637Z,93986.53
2022-11-17T09:59:41.832Z,93982.47
2022-11-17T10:04:50.038Z,93964.66
2022-11-17T10:09:54.996Z,93975.03
2022-11-17T10:15:02.142Z,93963.56
2022-11-17T10:20:13.499Z,93965.47
2022-11-17T10:25:18.457Z,93978.72
2022-11-17T10:30:24.775Z,93974.94
2022-11-17T10:35:41.022Z,93958.25
2022-11-17T10:40:49.081Z,93959.19
2022-11-17T10:45:56.018Z,93956.16
2022-11-17T10:51:00.783Z,93963.41
2022-11-17T10:56:04.863Z,93955.97
2022-11-17T11:01:11.444Z,93958.66
2022-11-17T11:06:17.610Z,93959.53
2022-11-17T11:11:21.665Z,93955.88
2022-11-17T11:16:27.471Z,93961.41
2022-11-17T11:21:32.444Z,93943.88
2022-11-17T11:26:39.883Z,93963.59
2022-11-17T11:31:45.141Z,93958.44
2022-11-17T11:36:49.355Z,93956.63
2022-11-17T11:41:53.346Z,93976.13
2022-11-17T11:46:56.814Z,93984.81
2022-11-17T11:52:06.395Z,93976.47
2022-11-17T11:57:10.950Z,93978.38
2022-11-17T12:02:19.807Z,93958.78
2022-11-17T12:07:24.241Z,93943.69
2022-11-17T12:12:28.678Z,93962.34
2022-11-17T12:17:36.127Z,93962.28
2022-11-17T12:22:46.680Z,93956.16
2022-11-17T12:27:51.192Z,93977.25
2022-11-17T12:32:55.383Z,93968.00
2022-11-17T12:38:10.370Z,93971.47
2022-11-17T12:43:15.597Z,93963.28
2022-11-17T12:48:33.335Z,93958.25
2022-11-17T12:53:37.975Z,93956.75
2022-11-17T12:58:43.179Z,93964.56
2022-11-17T13:03:49.027Z,93964.84
2022-11-17T13:08:55.914Z,93952.59
2022-11-17T13:14:11.264Z,93944.00
2022-11-17T13:19:17.625Z,93949.56
2022-11-17T13:24:22.632Z,93955.88
2022-11-17T13:29:25.869Z,93960.16
2022-11-17T13:34:31.638Z,93960.66
2022-11-17T13:39:38.106Z,93967.59
2022-11-17T13:44:45.376Z,93951.09
2022-11-17T13:49:55.155Z,93959.03
2022-11-17T13:54:59.038Z,93957.03
2022-11-17T14:00:04.733Z,93964.50
2022-11-17T14:05:09.504Z,93973.34
2022-11-17T14:10:21.835Z,93991.34
2022-11-17T14:15:30.733Z,93990.41
2022-11-17T14:20:49.918Z,93990.22
2022-11-17T14:25:55.014Z,93991.81
2022-11-17T14:31:01.640Z,93980.59
2022-11-17T14:36:07.455Z,93985.34
2022-11-17T14:41:16.466Z,93994.00
2022-11-17T14:46:32.257Z,93988.44
2022-11-17T14:51:39.180Z,93990.09
2022-11-17T14:56:53.997Z,93991.78
2022-11-17T15:02:13.133Z,93994.88
2022-11-17T15:07:28.409Z,93988.81
2022-11-17T15:12:31.672Z,93986.56
2022-11-17T15:17:36.897Z,93984.06
2022-11-17T15:22:42.569Z,93974.84
2022-11-17T15:28:01.403Z,93974.16
2022-11-17T15:33:06.521Z,93968.00
2022-11-17T15:38:12.446Z,93971.56
2022-11-17T15:43:22.875Z,93965.16
2022-11-17T15:48:38.944Z,93965.38
2022-11-17T15:53:46.092Z,93957.91
2022-11-17T15:58:52.752Z,93966.06
2022-11-17T16:04:01.118Z,93989.69
2022-11-17T16:09:08.041Z,93983.38
2022-11-17T16:14:12.144Z,93981.38
2022-11-17T16:19:28.069Z,93974.78
2022-11-17T16:24:52.214Z,93966.19
2022-11-17T16:29:59.781Z,93969.94
2022-11-17T16:35:07.716Z,93959.84
2022-11-17T16:40:15.283Z,93961.06
2022-11-17T16:45:22.025Z,93951.72
2022-11-17T16:50:26.115Z,93940.56
2022-11-17T16:55:30.349Z,93932.38
2022-11-17T17:00:35.598Z,93940.19
2022-11-17T17:05:46.823Z,93954.56
2022-11-17T17:10:52.470Z,93952.19
2022-11-17T17:16:01.641Z,93949.81
2022-11-17T17:21:13.784Z,93958.56
2022-11-17T17:26:22.464Z,93946.88
2022-11-17T17:31:29.925Z,93939.50
2022-11-17T17:36:37.375Z,93940.28
2022-11-17T17:41:43.781Z,93936.53
2022-11-17T17:46:49.705Z,93946.16
2022-11-17T17:51:54.548Z,93946.44
2022-11-17T17:57:00.532Z,93941.53
2022-11-17T18:02:06.459Z,93952.88
2022-11-17T18:07:14.974Z,93954.69
2022-11-17T18:12:20.528Z,93955.00
2022-11-17T18:17:28.025Z,93956.50
2022-11-17T18:22:36.648Z,93956.50
2022-11-17T18:27:43.598Z,93960.47
2022-11-17T18:32:48.835Z,93974.75
2022-11-17T18:37:52.832Z,93957.31
2022-11-17T18:43:02.029Z,93955.13
2022-11-17T18:48:07.435Z,93960.47
2022-11-17T18:53:12.021Z,93971.19
2022-11-17T18:58:16.107Z,93966.41
2022-11-17T19:03:21.693Z,93963.63
2022-11-17T19:08:27.662Z,93954.31
2022-11-17T19:13:33.302Z,93948.25
2022-11-17T19:18:38.979Z,93943.91
2022-11-17T19:23:51.070Z,93946.16
2022-11-17T19:29:02.309Z,93946.41
2022-11-17T19:34:10.317Z,93938.81
2022-11-17T19:39:17.148Z,93941.34
2022-11-17T19:44:27.855Z,93938.19
2022-11-17T19:49:44.105Z,93954.72
2022-11-17T19:54:50.799Z,93960.66
2022-11-17T19:59:58.973Z,93953.41
2022-11-17T20:05:11.966Z,93945.63
2022-11-17T20:10:14.937Z,93950.00
2022-11-17T20:15:34.056Z,93970.25
2022-11-17T20:20:40.579Z,93969.94
2022-11-17T20:25:43.878Z,93962.22
2022-11-17T20:30:52.689Z,93971.75
2022-11-17T20:36:04.685Z,93970.66
2022-11-17T20:41:13.263Z,93967.75
2022-11-17T20:46:25.902Z,93967.00
2022-11-17T20:51:34.489Z,93968.00
2022-11-17T20:56:44.754Z,93977.09
2022-11-17T21:01:56.170Z,93975.47
2022-11-17T21:07:00.366Z,93976.06
2022-11-17T21:12:04.414Z,93985.59
2022-11-17T21:17:28.548Z,93983.31
2022-11-17T21:22:49.170Z,93991.53
2022-11-17T21:27:56.387Z,93991.81
2022-11-17T21:33:07.596Z,93973.97
2022-11-17T21:38:12.177Z,93962.13
2022-11-17T21:43:15.173Z,93975.13
2022-11-17T21:48:20.321Z,93987.84
2022-11-17T21:53:27.861Z,93997.16
2022-11-17T21:58:32.202Z,93996.72
2022-11-17T22:03:36.175Z,94003.97
2022-11-17T22:08:40.053Z,94015.78
2022-11-17T22:13:43.062Z,94013.72
2022-11-17T22:18:47.147Z,94033.03
2022-11-17T22:23:52.018Z,94055.75
2022-11-17T22:28:57.439Z,94064.81
2022-11-17T22:34:01.533Z,94055.63
2022-11-17T22:39:07.830Z,94060.25
2022-11-17T22:44:11.180Z,94062.91
2022-11-17T22:49:14.980Z,94065.63
2022-11-17T22:54:21.349Z,94077.53
2022-11-17T22:59:25.175Z,94089.03
2022-11-17T23:04:29.723Z,94079.53
2022-11-17T23:09:32.809Z,94076.06
2022-11-17T23:14:35.728Z,94078.75
2022-11-17T23:19:40.889Z,94087.44
2022-11-17T23:24:46.689Z,94083.88
2022-11-17T23:29:51.354Z,94083.38
2022-11-17T23:34:55.654Z,94077.81
2022-11-17T23:39:58.731Z,94079.09
2022-11-17T23:45:04.777Z,94081.06
2022-11-17T23:50:09.446Z,94075.81
2022-11-17T23:55:15.250Z,94061.66
